createdAt,value
2024-03-15T00:01:04.324Z,53.47
2024-03-15T00:03:36.621Z,53.52
2024-03-15T00:06:06.315Z,53.97
2024-03-15T00:08:38.511Z,53.66
2024-03-15T00:11:10.707Z,53.69
2024-03-15T00:13:47.631Z,53.87
2024-03-15T00:16:24.702Z,54.70
2024-03-15T00:18:57.153Z,57.36
2024-03-15T00:21:29.942Z,54.58
2024-03-15T00:24:03.188Z,54.20
2024-03-15T00:26:33.375Z,54.16
2024-03-15T00:29:07.492Z,54.46
2024-03-15T00:31:35.896Z,54.29
2024-03-15T00:34:08.598Z,54.07
2024-03-15T00:36:37.148Z,54.91
2024-03-15T00:39:08.431Z,55.08
2024-03-15T00:41:37.157Z,54.42
2024-03-15T00:44:08.157Z,54.69
2024-03-15T00:46:36.614Z,54.68
2024-03-15T00:49:05.560Z,54.85
2024-03-15T00:51:36.648Z,54.58
2024-03-15T00:54:06.242Z,54.81
2024-03-15T00:56:35.015Z,55.05
2024-03-15T00:59:03.668Z,54.15
2024-03-15T01:01:33.827Z,54.43
2024-03-15T01:04:02.311Z,54.42
2024-03-15T01:06:39.897Z,54.63
2024-03-15T01:09:08.672Z,55.00
2024-03-15T01:11:43.001Z,54.97
2024-03-15T01:14:14.017Z,55.38
2024-03-15T01:16:47.735Z,55.27
2024-03-15T01:19:17.244Z,55.96
2024-03-15T01:21:45.963Z,55.62
2024-03-15T01:24:15.292Z,55.07
2024-03-15T01:26:46.302Z,56.20
2024-03-15T01:29:20.072Z,55.58
2024-03-15T01:31:48.889Z,55.84
2024-03-15T01:34:18.897Z,55.46
2024-03-15T01:36:48.172Z,55.41
2024-03-15T01:39:19.009Z,55.46
2024-03-15T01:41:51.093Z,55.45
2024-03-15T01:44:20.189Z,55.35
2024-03-15T01:46:53.232Z,55.63
2024-03-15T01:49:28.137Z,56.84
2024-03-15T01:51:56.634Z,56.88
2024-03-15T01:54:29.957Z,56.56
2024-03-15T01:56:59.641Z,55.65
2024-03-15T01:59:30.276Z,55.77
2024-03-15T02:02:01.602Z,56.33
2024-03-15T02:04:32.354Z,56.46
2024-03-15T02:07:01.014Z,56.22
2024-03-15T02:09:33.117Z,56.63
2024-03-15T02:12:01.572Z,56.42
2024-03-15T02:14:35.866Z,56.80
2024-03-15T02:17:04.244Z,56.90
2024-03-15T02:19:35.943Z,57.01
2024-03-15T02:22:04.342Z,56.85
2024-03-15T02:24:37.009Z,57.31
2024-03-15T02:27:06.424Z,57.20
2024-03-15T02:29:41.298Z,57.26
2024-03-15T02:32:09.735Z,57.42
2024-03-15T02:34:42.308Z,57.51
2024-03-15T02:37:10.862Z,57.62
2024-03-15T02:39:40.400Z,58.36
2024-03-15T02:42:08.946Z,58.49
2024-03-15T02:44:39.179Z,58.74
2024-03-15T02:47:10.284Z,58.86
2024-03-15T02:49:47.757Z,59.53
2024-03-15T02:52:16.564Z,59.51
2024-03-15T02:54:46.666Z,59.65
2024-03-15T02:57:15.124Z,60.06
2024-03-15T02:59:49.157Z,60.84
2024-03-15T03:02:17.753Z,61.43
2024-03-15T03:04:47.950Z,60.11
2024-03-15T03:07:16.340Z,59.02
2024-03-15T03:09:49.629Z,59.50
2024-03-15T03:12:18.358Z,58.90
2024-03-15T03:14:48.572Z,59.49
2024-03-15T03:17:19.867Z,59.67
2024-03-15T03:19:52.196Z,59.43
2024-03-15T03:22:20.855Z,58.99
2024-03-15T03:24:54.217Z,59.86
2024-03-15T03:27:22.939Z,59.78
2024-03-15T03:29:57.561Z,59.69
2024-03-15T03:32:26.223Z,59.99
2024-03-15T03:34:56.380Z,60.04
2024-03-15T03:37:24.765Z,59.62
2024-03-15T03:39:59.311Z,59.43
2024-03-15T03:42:27.797Z,60.67
2024-03-15T03:45:02.388Z,60.53
2024-03-15T03:47:30.824Z,60.55
2024-03-15T03:50:03.880Z,60.75
2024-03-15T03:52:32.294Z,61.00
2024-03-15T03:55:06.540Z,61.06
2024-03-15T03:57:43.655Z,60.74
2024-03-15T04:00:16.924Z,60.67
2024-03-15T04:02:47.793Z,60.47
2024-03-15T04:05:16.443Z,60.79
2024-03-15T04:07:48.658Z,60.64
2024-03-15T04:10:17.378Z,60.51
2024-03-15T04:12:54.124Z,60.15
2024-03-15T04:15:29.295Z,60.93
2024-03-15T04:18:00.130Z,60.31
2024-03-15T04:20:31.933Z,60.71
2024-03-15T04:23:00.456Z,61.03
2024-03-15T04:25:34.480Z,60.96
2024-03-15T04:28:03.415Z,61.09
2024-03-15T04:30:33.284Z,61.45
2024-03-15T04:33:02.854Z,61.07
2024-03-15T04:35:32.612Z,60.93
2024-03-15T04:38:05.553Z,61.48
2024-03-15T04:40:42.597Z,61.08
2024-03-15T04:43:12.158Z,61.07
2024-03-15T04:45:44.900Z,61.52
2024-03-15T04:48:13.701Z,61.87
2024-03-15T04:50:51.080Z,61.41
2024-03-15T04:53:23.370Z,62.01
2024-03-15T04:55:51.834Z,62.05
2024-03-15T04:58:27.263Z,61.87
2024-03-15T05:00:56.127Z,62.41
2024-03-15T05:03:28.703Z,63.12
2024-03-15T05:05:57.166Z,62.35
2024-03-15T05:08:29.100Z,62.92
2024-03-15T05:10:57.666Z,63.10
2024-03-15T05:13:27.710Z,62.48
2024-03-15T05:15:56.218Z,63.34
2024-03-15T05:18:30.021Z,62.75
2024-03-15T05:20:58.765Z,62.50
2024-03-15T05:23:33.336Z,63.53
2024-03-15T05:26:02.146Z,63.51
2024-03-15T05:28:36.352Z,63.57
2024-03-15T05:31:08.220Z,63.22
2024-03-15T05:33:39.524Z,63.53
2024-03-15T05:36:15.454Z,64.20
2024-03-15T05:38:43.859Z,64.36
2024-03-15T05:41:19.233Z,63.74
2024-03-15T05:43:47.661Z,63.68
2024-03-15T05:46:21.215Z,63.47
2024-03-15T05:48:49.838Z,63.24
2024-03-15T05:51:21.573Z,63.03
2024-03-15T05:53:50.054Z,62.94
2024-03-15T05:56:23.349Z,62.55
2024-03-15T05:58:52.387Z,63.24
2024-03-15T06:01:22.667Z,62.52
2024-03-15T06:03:51.567Z,63.05
2024-03-15T06:06:27.315Z,62.62
2024-03-15T06:08:56.068Z,62.63
2024-03-15T06:11:26.220Z,62.42
2024-03-15T06:13:55.170Z,62.71
2024-03-15T06:16:29.098Z,62.65
2024-03-15T06:18:57.773Z,63.56
2024-03-15T06:21:31.527Z,63.46
2024-03-15T06:23:59.968Z,64.48
2024-03-15T06:26:32.072Z,66.70
2024-03-15T06:29:03.399Z,64.94
2024-03-15T06:31:34.776Z,70.75
2024-03-15T06:34:09.323Z,67.33
2024-03-15T06:36:44.443Z,68.22
2024-03-15T06:39:26.112Z,64.76
2024-03-15T06:42:00.248Z,68.38
2024-03-15T06:44:40.465Z,67.74
2024-03-15T06:47:31.275Z,65.61
2024-03-15T06:50:24.813Z,66.25
2024-03-15T06:52:55.429Z,65.32
2024-03-15T06:55:30.624Z,67.27
2024-03-15T06:58:03.813Z,65.25
2024-03-15T07:00:37.814Z,65.89
2024-03-15T07:03:14.707Z,65.92
2024-03-15T07:05:43.964Z,65.12
2024-03-15T07:08:16.860Z,67.34
2024-03-15T07:10:45.360Z,67.72
2024-03-15T07:13:17.598Z,65.01
2024-03-15T07:15:46.239Z,65.29
2024-03-15T07:18:18.830Z,65.64
2024-03-15T07:20:47.633Z,68.73
2024-03-15T07:23:19.450Z,67.09
2024-03-15T07:25:50.953Z,68.53
2024-03-15T07:28:22.607Z,68.28
2024-03-15T07:30:51.370Z,67.64
2024-03-15T07:33:25.464Z,67.42
2024-03-15T07:35:55.836Z,65.86
2024-03-15T07:38:28.845Z,64.95
2024-03-15T07:40:57.289Z,66.18
2024-03-15T07:43:35.082Z,64.31
2024-03-15T07:46:07.408Z,63.45
2024-03-15T07:48:36.148Z,64.42
2024-03-15T07:51:10.549Z,65.44
2024-03-15T07:53:40.433Z,65.37
2024-03-15T07:56:12.159Z,65.42
2024-03-15T07:58:41.293Z,65.35
2024-03-15T08:01:10.764Z,63.88
2024-03-15T08:03:39.953Z,63.55
2024-03-15T08:06:12.045Z,62.92
2024-03-15T08:08:41.161Z,62.57
2024-03-15T08:11:13.235Z,63.18
2024-03-15T08:13:42.600Z,62.81
2024-03-15T08:16:17.309Z,62.37
2024-03-15T08:18:48.807Z,61.25
2024-03-15T08:21:20.775Z,61.40
2024-03-15T08:23:49.479Z,62.59
2024-03-15T08:26:21.946Z,61.82
2024-03-15T08:28:51.277Z,60.28
2024-03-15T08:31:20.584Z,61.61
2024-03-15T08:33:49.849Z,61.07
2024-03-15T08:36:20.938Z,60.68
2024-03-15T08:38:49.889Z,60.17
2024-03-15T08:41:24.290Z,58.80
2024-03-15T08:43:52.700Z,58.37
2024-03-15T08:46:23.896Z,59.50
2024-03-15T08:48:57.227Z,58.77
2024-03-15T08:51:30.019Z,59.46
2024-03-15T08:53:58.670Z,58.30
2024-03-15T08:56:34.467Z,56.75
2024-03-15T08:59:08.264Z,55.94
2024-03-15T09:01:37.347Z,56.50
2024-03-15T09:04:10.173Z,56.00
2024-03-15T09:06:38.961Z,57.20
2024-03-15T09:09:14.513Z,55.81
2024-03-15T09:11:44.057Z,55.85
2024-03-15T09:14:20.010Z,56.76
2024-03-15T09:16:53.420Z,54.90
2024-03-15T09:19:23.007Z,56.11
2024-03-15T09:21:56.189Z,54.81
2024-03-15T09:24:24.648Z,55.34
2024-03-15T09:27:02.208Z,53.87
2024-03-15T09:29:30.641Z,53.37
2024-03-15T09:32:13.869Z,54.86
2024-03-15T09:34:50.096Z,53.81
2024-03-15T09:37:26.326Z,53.27
2024-03-15T09:39:55.005Z,53.10
2024-03-15T09:42:30.654Z,51.82
2024-03-15T09:45:08.898Z,49.82
2024-03-15T09:47:38.632Z,50.27
2024-03-15T09:50:12.575Z,50.49
2024-03-15T09:52:42.113Z,49.55
2024-03-15T09:55:14.662Z,49.27
2024-03-15T09:57:44.811Z,49.11
2024-03-15T10:00:24.562Z,48.86
2024-03-15T10:02:57.735Z,48.29
2024-03-15T10:05:26.194Z,49.57
2024-03-15T10:07:58.000Z,49.81
2024-03-15T10:10:27.725Z,46.80
2024-03-15T10:12:58.542Z,44.69
2024-03-15T10:15:27.205Z,45.52
2024-03-15T10:18:02.100Z,44.84
2024-03-15T10:20:34.886Z,43.60
2024-03-15T10:23:07.983Z,41.06
2024-03-15T10:25:42.670Z,38.75
2024-03-15T10:28:12.208Z,36.25
2024-03-15T10:30:44.681Z,32.36
2024-03-15T10:33:13.479Z,34.13
2024-03-15T10:35:47.312Z,34.94
2024-03-15T10:38:16.385Z,35.88
2024-03-15T10:40:48.743Z,36.79
2024-03-15T10:43:17.538Z,37.07
2024-03-15T10:45:50.206Z,36.98
2024-03-15T10:48:21.094Z,36.88
2024-03-15T10:50:49.811Z,38.72
2024-03-15T10:53:18.437Z,38.64
2024-03-15T10:55:52.674Z,38.66
2024-03-15T10:58:21.350Z,39.46
2024-03-15T11:00:59.815Z,39.57
2024-03-15T11:03:33.423Z,40.22
2024-03-15T11:06:02.592Z,39.13
2024-03-15T11:08:36.211Z,37.13
2024-03-15T11:11:05.793Z,37.54
2024-03-15T11:13:38.102Z,37.81
2024-03-15T11:16:21.185Z,38.90
2024-03-15T11:18:49.661Z,38.01
2024-03-15T11:21:21.956Z,37.51
2024-03-15T11:23:51.808Z,37.11
2024-03-15T11:26:22.801Z,36.50
2024-03-15T11:28:57.583Z,36.35
2024-03-15T11:31:34.118Z,36.91
2024-03-15T11:34:04.330Z,36.17
2024-03-15T11:36:33.075Z,35.99
2024-03-15T11:39:11.199Z,36.01
2024-03-15T11:41:40.401Z,36.93
2024-03-15T11:44:11.572Z,37.07
2024-03-15T11:46:40.306Z,36.93
2024-03-15T11:49:10.724Z,35.85
2024-03-15T11:51:40.675Z,34.70
2024-03-15T11:54:15.760Z,33.70
2024-03-15T11:56:45.231Z,34.69
2024-03-15T11:59:16.425Z,35.58
2024-03-15T12:01:44.921Z,34.69
2024-03-15T12:04:15.183Z,35.10
2024-03-15T12:06:44.390Z,34.30
2024-03-15T12:09:19.303Z,34.48
2024-03-15T12:11:48.166Z,33.94
2024-03-15T12:14:20.373Z,32.92
2024-03-15T12:16:49.085Z,32.72
2024-03-15T12:19:20.626Z,33.34
2024-03-15T12:21:49.701Z,32.87
2024-03-15T12:24:20.740Z,34.37
2024-03-15T12:26:49.473Z,33.15
2024-03-15T12:29:21.586Z,32.94
2024-03-15T12:31:50.259Z,33.94
2024-03-15T12:34:20.602Z,33.63
2024-03-15T12:36:49.458Z,33.31
2024-03-15T12:39:25.966Z,32.93
2024-03-15T12:41:56.355Z,32.41
2024-03-15T12:44:26.486Z,31.53
2024-03-15T12:46:54.888Z,31.31
2024-03-15T12:49:26.694Z,32.28
2024-03-15T12:51:55.428Z,31.16
2024-03-15T12:54:25.711Z,32.96
2024-03-15T12:56:56.655Z,32.35
2024-03-15T12:59:28.094Z,32.77
2024-03-15T13:01:56.942Z,32.02
2024-03-15T13:04:32.748Z,30.61
2024-03-15T13:07:01.224Z,31.15
2024-03-15T13:09:33.633Z,33.39
2024-03-15T13:12:02.786Z,31.18
2024-03-15T13:14:34.964Z,32.00
2024-03-15T13:17:04.642Z,31.89
2024-03-15T13:19:34.600Z,31.34
2024-03-15T13:22:03.091Z,32.45
2024-03-15T13:24:33.078Z,31.00
2024-03-15T13:27:04.914Z,30.97
2024-03-15T13:29:39.846Z,30.95
2024-03-15T13:32:08.784Z,31.15
2024-03-15T13:34:40.960Z,29.87
2024-03-15T13:37:09.617Z,29.11
2024-03-15T13:39:41.239Z,29.25
2024-03-15T13:42:09.931Z,31.82
2024-03-15T13:44:39.380Z,31.99
2024-03-15T13:47:09.939Z,31.62
2024-03-15T13:49:40.303Z,31.13
2024-03-15T13:52:09.533Z,31.40
2024-03-15T13:54:39.518Z,30.59
2024-03-15T13:57:17.278Z,31.03
2024-03-15T13:59:48.781Z,29.92
2024-03-15T14:02:18.324Z,29.81
2024-03-15T14:04:47.414Z,30.50
2024-03-15T14:07:17.648Z,31.23
2024-03-15T14:09:50.948Z,31.14
2024-03-15T14:12:19.837Z,32.16
2024-03-15T14:14:52.676Z,30.88
2024-03-15T14:17:21.352Z,31.56
2024-03-15T14:19:52.690Z,32.17
2024-03-15T14:22:21.425Z,31.21
2024-03-15T14:24:51.847Z,32.38
2024-03-15T14:27:22.659Z,31.06
2024-03-15T14:29:56.565Z,30.90
2024-03-15T14:32:29.142Z,29.84
2024-03-15T14:34:57.794Z,30.67
2024-03-15T14:37:29.842Z,30.48
2024-03-15T14:39:58.309Z,31.57
2024-03-15T14:42:27.189Z,30.90
2024-03-15T14:45:01.408Z,30.99
2024-03-15T14:47:30.103Z,30.52
2024-03-15T14:49:59.604Z,31.95
2024-03-15T14:52:28.043Z,30.96
2024-03-15T14:55:06.104Z,32.43
2024-03-15T14:57:34.610Z,32.50
2024-03-15T15:00:13.599Z,32.40
2024-03-15T15:02:47.542Z,32.22
2024-03-15T15:05:16.231Z,31.91
2024-03-15T15:07:48.106Z,31.03
2024-03-15T15:10:18.349Z,31.21
2024-03-15T15:12:47.609Z,32.21
2024-03-15T15:15:20.704Z,33.24
2024-03-15T15:17:55.322Z,33.86
2024-03-15T15:20:31.319Z,33.96
2024-03-15T15:23:05.321Z,33.60
2024-03-15T15:25:36.570Z,34.26
2024-03-15T15:28:05.820Z,33.66
2024-03-15T15:30:35.894Z,34.71
2024-03-15T15:33:05.066Z,35.10
2024-03-15T15:35:36.444Z,36.56
2024-03-15T15:38:05.713Z,35.75
2024-03-15T15:40:38.615Z,36.28
2024-03-15T15:43:07.621Z,36.98
2024-03-15T15:45:44.156Z,37.47
2024-03-15T15:48:20.705Z,37.32
2024-03-15T15:50:49.956Z,37.88
2024-03-15T15:53:24.855Z,37.76
2024-03-15T15:55:53.617Z,37.37
2024-03-15T15:58:25.800Z,37.32
2024-03-15T16:00:55.154Z,37.49
2024-03-15T16:03:26.663Z,37.99
2024-03-15T16:05:56.875Z,38.11
2024-03-15T16:08:28.279Z,38.44
2024-03-15T16:10:56.875Z,38.51
2024-03-15T16:13:28.262Z,38.58
2024-03-15T16:15:57.588Z,38.73
2024-03-15T16:18:29.525Z,38.84
2024-03-15T16:20:57.913Z,39.06
2024-03-15T16:23:28.493Z,39.33
2024-03-15T16:25:58.763Z,39.71
2024-03-15T16:28:32.424Z,40.01
2024-03-15T16:31:01.199Z,40.16
2024-03-15T16:33:31.558Z,40.45
2024-03-15T16:36:00.589Z,40.45
2024-03-15T16:38:41.459Z,40.30
2024-03-15T16:41:16.313Z,40.42
2024-03-15T16:43:44.791Z,40.74
2024-03-15T16:46:16.627Z,40.94
2024-03-15T16:48:45.799Z,41.20
2024-03-15T16:51:20.492Z,41.33
2024-03-15T16:53:49.197Z,41.57
2024-03-15T16:56:22.275Z,41.79
2024-03-15T16:58:50.803Z,42.00
2024-03-15T17:01:22.559Z,42.18
2024-03-15T17:03:51.091Z,42.33
2024-03-15T17:06:25.720Z,42.53
2024-03-15T17:08:54.218Z,42.70
2024-03-15T17:11:26.787Z,42.96
2024-03-15T17:13:55.763Z,43.18
2024-03-15T17:16:25.486Z,43.39
2024-03-15T17:18:57.836Z,43.52
2024-03-15T17:21:27.541Z,43.84
2024-03-15T17:23:55.995Z,44.12
2024-03-15T17:26:33.642Z,44.31
2024-03-15T17:29:03.109Z,44.29
2024-03-15T17:31:32.010Z,44.45
2024-03-15T17:34:00.615Z,44.57
2024-03-15T17:36:31.476Z,44.50
2024-03-15T17:38:59.932Z,44.49
2024-03-15T17:41:41.728Z,44.69
2024-03-15T17:44:13.097Z,45.02
2024-03-15T17:46:44.052Z,45.28
2024-03-15T17:49:18.640Z,45.68
2024-03-15T17:51:47.544Z,45.86
2024-03-15T17:54:19.011Z,46.18
2024-03-15T17:56:50.484Z,46.18
2024-03-15T17:59:20.470Z,45.71
2024-03-15T18:01:49.309Z,45.24
2024-03-15T18:04:26.327Z,45.20
2024-03-15T18:06:55.174Z,45.58
2024-03-15T18:09:24.925Z,45.67
2024-03-15T18:11:54.249Z,45.83
2024-03-15T18:14:25.769Z,46.27
2024-03-15T18:16:56.588Z,46.83
2024-03-15T18:19:27.833Z,46.89
2024-03-15T18:21:56.631Z,47.03
2024-03-15T18:24:28.895Z,46.26
2024-03-15T18:26:57.772Z,46.60
2024-03-15T18:29:30.222Z,47.16
2024-03-15T18:31:59.009Z,47.80
2024-03-15T18:34:32.024Z,47.65
2024-03-15T18:37:00.879Z,47.40
2024-03-15T18:39:33.218Z,47.17
2024-03-15T18:42:02.190Z,47.26
2024-03-15T18:44:33.912Z,47.69
2024-03-15T18:47:05.935Z,47.49
2024-03-15T18:49:34.649Z,47.20
2024-03-15T18:52:03.606Z,47.58
2024-03-15T18:54:33.468Z,47.83
2024-03-15T18:57:05.316Z,48.06
2024-03-15T18:59:39.526Z,47.72
2024-03-15T19:02:08.266Z,48.16
2024-03-15T19:04:42.611Z,48.54
2024-03-15T19:07:11.694Z,48.90
2024-03-15T19:09:41.315Z,49.57
2024-03-15T19:12:10.152Z,49.72
2024-03-15T19:14:40.656Z,49.72
2024-03-15T19:17:13.600Z,50.04
2024-03-15T19:19:45.899Z,50.40
2024-03-15T19:22:14.420Z,50.51
2024-03-15T19:24:47.988Z,50.33
2024-03-15T19:27:16.713Z,50.79
2024-03-15T19:29:47.455Z,49.29
2024-03-15T19:32:16.285Z,50.13
2024-03-15T19:34:48.382Z,49.98
2024-03-15T19:37:17.725Z,50.78
2024-03-15T19:39:49.912Z,50.65
2024-03-15T19:42:18.611Z,50.40
2024-03-15T19:44:51.114Z,50.65
2024-03-15T19:47:21.635Z,50.93
2024-03-15T19:49:53.882Z,51.25
2024-03-15T19:52:22.843Z,51.47
2024-03-15T19:54:54.599Z,51.68
2024-03-15T19:57:26.639Z,51.85
2024-03-15T20:00:03.991Z,51.65
2024-03-15T20:02:41.613Z,51.51
2024-03-15T20:05:10.549Z,52.15
2024-03-15T20:07:42.661Z,52.17
2024-03-15T20:10:12.170Z,51.48
2024-03-15T20:12:41.600Z,51.17
2024-03-15T20:15:10.967Z,51.58
2024-03-15T20:17:41.162Z,51.37
2024-03-15T20:20:11.705Z,51.60
2024-03-15T20:22:42.223Z,51.63
2024-03-15T20:25:12.314Z,51.28
2024-03-15T20:27:45.540Z,51.69
2024-03-15T20:30:14.573Z,51.32
2024-03-15T20:32:46.508Z,49.71
2024-03-15T20:35:15.742Z,50.07
2024-03-15T20:37:47.781Z,50.72
2024-03-15T20:40:23.321Z,50.78
2024-03-15T20:42:56.188Z,51.75
2024-03-15T20:45:32.648Z,51.70
2024-03-15T20:48:02.521Z,50.96
2024-03-15T20:50:33.469Z,51.34
2024-03-15T20:53:06.854Z,50.63
2024-03-15T20:55:35.557Z,50.32
2024-03-15T20:58:06.760Z,51.18
2024-03-15T21:00:38.711Z,51.89
2024-03-15T21:03:07.781Z,50.86
2024-03-15T21:05:38.905Z,50.81
2024-03-15T21:08:09.490Z,51.37
2024-03-15T21:10:38.222Z,51.56
2024-03-15T21:13:06.747Z,51.81
2024-03-15T21:15:41.821Z,52.05
2024-03-15T21:18:10.428Z,51.80
2024-03-15T21:20:41.192Z,50.51
2024-03-15T21:23:09.646Z,51.26
2024-03-15T21:25:45.483Z,51.90
2024-03-15T21:28:14.133Z,52.26
2024-03-15T21:30:43.760Z,52.01
2024-03-15T21:33:12.270Z,52.36
2024-03-15T21:35:46.765Z,52.01
2024-03-15T21:38:15.307Z,52.40
2024-03-15T21:40:46.740Z,52.02
2024-03-15T21:43:17.889Z,52.23
2024-03-15T21:45:50.269Z,52.48
2024-03-15T21:48:19.055Z,52.76
2024-03-15T21:50:51.236Z,53.03
2024-03-15T21:53:19.822Z,53.17
2024-03-15T21:55:57.485Z,53.37
2024-03-15T21:58:26.730Z,53.10
2024-03-15T22:01:04.705Z,53.21
2024-03-15T22:03:36.044Z,53.65
2024-03-15T22:06:06.776Z,53.71
2024-03-15T22:08:35.439Z,54.15
2024-03-15T22:11:05.057Z,54.07
2024-03-15T22:13:42.461Z,54.27
2024-03-15T22:16:13.870Z,54.67
2024-03-15T22:18:46.421Z,54.64
2024-03-15T22:21:19.915Z,54.61
2024-03-15T22:23:48.322Z,54.29
2024-03-15T22:26:18.313Z,53.35
2024-03-15T22:28:48.989Z,53.68
2024-03-15T22:31:23.341Z,54.28
2024-03-15T22:33:51.821Z,53.32
2024-03-15T22:36:26.765Z,54.30
2024-03-15T22:38:55.267Z,54.15
2024-03-15T22:41:27.026Z,53.52
2024-03-15T22:43:57.267Z,53.10
2024-03-15T22:46:27.905Z,53.06
2024-03-15T22:48:56.465Z,53.25
2024-03-15T22:51:26.365Z,52.77
2024-03-15T22:53:54.142Z,53.46
2024-03-15T22:56:28.552Z,52.81
2024-03-15T22:58:57.440Z,53.26
2024-03-15T23:01:38.784Z,53.87
2024-03-15T23:04:12.715Z,54.12
2024-03-15T23:06:41.236Z,54.16
2024-03-15T23:09:13.961Z,54.19
2024-03-15T23:11:42.652Z,54.30
2024-03-15T23:14:20.261Z,54.57
2024-03-15T23:16:48.702Z,54.49
2024-03-15T23:19:19.250Z,54.57
2024-03-15T23:21:47.797Z,54.43
2024-03-15T23:24:20.024Z,54.30
2024-03-15T23:26:48.403Z,54.04
2024-03-15T23:29:18.407Z,54.37
2024-03-15T23:31:46.989Z,54.71
2024-03-15T23:34:18.853Z,54.79
2024-03-15T23:36:50.430Z,55.07
2024-03-15T23:39:24.653Z,55.37
2024-03-15T23:41:54.586Z,55.75
2024-03-15T23:44:26.747Z,55.91
2024-03-15T23:46:55.448Z,55.92
2024-03-15T23:49:26.287Z,56.02
2024-03-15T23:51:55.070Z,56.16
2024-03-15T23:54:26.173Z,56.09
2024-03-15T23:56:55.155Z,56.52
2024-03-15T23:59:29.302Z,56.33
